Time;durP1;ratioP1;P1;durP2;ratioP2;P2;SDS_P1;SDS_P2;PMS_P1;PMS_P2;Temp;Humidity;BMP_temperature;BMP_pressure;BME280_temperature;BME280_humidity;BME280_pressure;Samples;Min_cycle;Max_cycle;Signal;HPM_P1;HPM_P2
2023/05/09 00:00:10;;;;;;;;;;;18.80;69.00;;;;;;5052843;28;20446;-70
2023/05/09 00:02:36;;;;;;;;;;;18.80;68.90;;;;;;5035428;28;19928;-70
2023/05/09 00:05:02;;;;;;;;;;;18.80;68.90;;;;;;5035135;28;19932;-70
2023/05/09 00:07:28;;;;;;;;;;;18.90;69.00;;;;;;5034944;28;20007;-71
2023/05/09 00:09:53;;;;;;;;;;;18.80;68.90;;;;;;5034938;28;20011;-70
2023/05/09 00:12:20;;;;;;;;;;;18.80;68.90;;;;;;5035225;28;19920;-70
2023/05/09 00:14:49;;;;;;;;;;;18.80;68.90;;;;;;5052699;28;19921;-70
2023/05/09 00:17:15;;;;;;;;;;;18.80;68.90;;;;;;5035261;28;19920;-70
2023/05/09 00:19:42;;;;;;;;;;;18.80;68.90;;;;;;5035022;28;20017;-71
2023/05/09 00:22:08;;;;;;;;;;;18.80;68.90;;;;;;5052734;28;19928;-71
2023/05/09 00:24:33;;;;;;;;;;;18.80;68.90;;;;;;5035055;28;20296;-70
2023/05/09 00:26:59;;;;;;;;;;;18.80;68.90;;;;;;5034593;28;19966;-71
2023/05/09 00:29:24;;;;;;;;;;;18.80;68.90;;;;;;5034142;28;19925;-70
2023/05/09 00:31:50;;;;;;;;;;;18.80;68.90;;;;;;5052027;28;19924;-70
2023/05/09 00:34:15;;;;;;;;;;;18.80;68.90;;;;;;5034165;28;19928;-70
2023/05/09 00:36:41;;;;;;;;;;;18.80;68.90;;;;;;5034242;28;19976;-71
2023/05/09 00:39:06;;;;;;;;;;;18.80;68.90;;;;;;5033981;28;20296;-71
2023/05/09 00:41:32;;;;;;;;;;;18.80;68.80;;;;;;5034127;28;19920;-70
2023/05/09 00:43:57;;;;;;;;;;;18.80;68.80;;;;;;5034298;28;19921;-70
2023/05/09 00:46:23;;;;;;;;;;;18.80;68.80;;;;;;5034302;28;19925;-70
2023/05/09 00:48:48;;;;;;;;;;;18.80;68.80;;;;;;5033883;28;20011;-71
2023/05/09 00:51:14;;;;;;;;;;;18.80;68.80;;;;;;5051937;28;19921;-71
2023/05/09 00:53:40;;;;;;;;;;;18.80;68.80;;;;;;5033960;28;19921;-70
2023/05/09 00:56:05;;;;;;;;;;;18.80;68.80;;;;;;5034215;28;19964;-70
2023/05/09 00:58:31;;;;;;;;;;;18.80;68.80;;;;;;5052113;28;19933;-70
2023/05/09 01:00:56;;;;;;;;;;;18.80;68.80;;;;;;5034365;28;19932;-70
2023/05/09 01:03:22;;;;;;;;;;;18.80;68.80;;;;;;5052291;28;20003;-68
2023/05/09 01:05:53;;;;;;;;;;;18.80;68.80;;;;;;5034382;28;19943;-70
2023/05/09 01:08:32;;;;;;;;;;;18.80;68.80;;;;;;5034162;28;19927;-70
2023/05/09 01:11:04;;;;;;;;;;;18.70;69.40;;;;;;5034169;28;19920;-70
2023/05/09 01:13:34;;;;;;;;;;;18.80;68.80;;;;;;5033440;28;19948;-70
2023/05/09 01:16:05;;;;;;;;;;;18.80;68.80;;;;;;5033860;28;19920;-71
2023/05/09 01:18:39;;;;;;;;;;;18.80;68.80;;;;;;5034554;28;19921;-71
2023/05/09 01:21:07;;;;;;;;;;;18.70;68.70;;;;;;5033877;28;19924;-71
2023/05/09 01:26:30;;;;;;;;;;;18.70;68.70;;;;;;5089968;28;19919;-70
2023/05/09 01:31:37;;;;;;;;;;;18.70;68.70;;;;;;5109997;27;19912;-70
2023/05/09 01:34:03;;;;;;;;;;;18.70;68.70;;;;;;5108386;28;19920;-70
2023/05/09 01:36:29;;;;;;;;;;;18.70;68.70;;;;;;5110014;28;20054;-71
2023/05/09 01:38:55;;;;;;;;;;;18.70;68.70;;;;;;5108487;28;20100;-70
2023/05/09 01:41:22;;;;;;;;;;;18.70;68.70;;;;;;5108552;28;19928;-70
2023/05/09 01:43:48;;;;;;;;;;;18.70;68.70;;;;;;5108675;28;19978;-70
2023/05/09 01:46:15;;;;;;;;;;;18.70;68.70;;;;;;5108830;28;19967;-70
2023/05/09 01:48:41;;;;;;;;;;;18.70;68.70;;;;;;5108374;28;19927;-70
2023/05/09 01:51:08;;;;;;;;;;;18.70;68.70;;;;;;5107829;28;19924;-70
2023/05/09 01:53:34;;;;;;;;;;;18.70;68.70;;;;;;5108363;28;19920;-70
2023/05/09 01:56:00;;;;;;;;;;;18.70;68.70;;;;;;5108337;28;20384;-70
2023/05/09 01:58:26;;;;;;;;;;;18.70;68.70;;;;;;5108300;28;20011;-70
2023/05/09 02:00:52;;;;;;;;;;;18.70;68.70;;;;;;5109506;28;19920;-70
2023/05/09 02:03:18;;;;;;;;;;;18.70;68.70;;;;;;5108440;28;20076;-70
2023/05/09 02:05:44;;;;;;;;;;;18.70;68.60;;;;;;5108244;28;19920;-70
2023/05/09 02:08:10;;;;;;;;;;;18.70;68.60;;;;;;5108469;28;19920;-70
2023/05/09 02:10:36;;;;;;;;;;;18.70;68.60;;;;;;5108186;28;19924;-70
2023/05/09 02:13:02;;;;;;;;;;;18.70;68.60;;;;;;5109236;28;19924;-70
2023/05/09 02:15:28;;;;;;;;;;;18.70;68.60;;;;;;5108358;28;19920;-71
2023/05/09 02:17:53;;;;;;;;;;;18.70;68.60;;;;;;5109409;28;20265;-70
2023/05/09 02:20:19;;;;;;;;;;;18.70;68.60;;;;;;5107813;28;19920;-70
2023/05/09 02:22:45;;;;;;;;;;;18.70;68.60;;;;;;5108018;28;19924;-71
2023/05/09 02:25:14;;;;;;;;;;;18.70;68.60;;;;;;5108084;28;19920;-70
2023/05/09 02:27:39;;;;;;;;;;;18.70;68.60;;;;;;5108110;28;19920;-70
2023/05/09 02:30:07;;;;;;;;;;;18.70;68.60;;;;;;5117280;28;20374;-70
2023/05/09 02:32:34;;;;;;;;;;;18.70;68.60;;;;;;5111147;28;20022;-71
2023/05/09 02:35:00;;;;;;;;;;;18.70;68.50;;;;;;5129207;28;19920;-70
2023/05/09 02:37:26;;;;;;;;;;;18.70;68.60;;;;;;5110801;28;20014;-70
2023/05/09 02:39:52;;;;;;;;;;;18.70;68.50;;;;;;5111465;28;20382;-71
2023/05/09 02:42:20;;;;;;;;;;;18.70;68.60;;;;;;5100610;28;19920;-70
2023/05/09 02:44:46;;;;;;;;;;;18.60;68.50;;;;;;5097750;28;19920;-70
2023/05/09 02:47:11;;;;;;;;;;;18.60;68.50;;;;;;5097244;28;19927;-69
2023/05/09 02:49:36;;;;;;;;;;;18.60;68.50;;;;;;5097305;28;19927;-70
2023/05/09 02:52:02;;;;;;;;;;;18.60;68.50;;;;;;5097612;28;19926;-70
2023/05/09 02:54:28;;;;;;;;;;;18.60;69.30;;;;;;5096844;28;20324;-70
2023/05/09 02:56:54;;;;;;;;;;;18.50;68.50;;;;;;5115210;28;19919;-70
2023/05/09 02:59:20;;;;;;;;;;;18.60;68.50;;;;;;5096985;28;19951;-70
2023/05/09 03:01:45;;;;;;;;;;;18.60;68.50;;;;;;5097101;28;19920;-71
2023/05/09 03:04:11;;;;;;;;;;;18.60;68.50;;;;;;5097322;28;19919;-70
2023/05/09 03:06:37;;;;;;;;;;;18.60;68.50;;;;;;5097350;28;19930;-70
2023/05/09 03:09:03;;;;;;;;;;;18.60;68.50;;;;;;5097042;28;19928;-70
2023/05/09 03:11:29;;;;;;;;;;;18.60;68.50;;;;;;5096880;28;19924;-70
2023/05/09 03:13:55;;;;;;;;;;;18.60;68.50;;;;;;5096831;28;19920;-70
2023/05/09 03:16:20;;;;;;;;;;;18.60;68.50;;;;;;5096376;28;20435;-71
2023/05/09 03:18:46;;;;;;;;;;;18.60;68.50;;;;;;5096268;28;19985;-70
2023/05/09 03:21:11;;;;;;;;;;;18.60;68.50;;;;;;5114553;28;19919;-70
2023/05/09 03:23:37;;;;;;;;;;;18.60;68.50;;;;;;5114417;28;19927;-70
2023/05/09 03:26:03;;;;;;;;;;;18.60;68.50;;;;;;5096853;28;19920;-71
2023/05/09 03:28:28;;;;;;;;;;;18.60;68.50;;;;;;5114667;28;19927;-70
2023/05/09 03:30:54;;;;;;;;;;;18.60;69.20;;;;;;5096124;28;19928;-70
2023/05/09 03:33:19;;;;;;;;;;;18.60;68.50;;;;;;5096747;28;19996;-70
2023/05/09 03:35:45;;;;;;;;;;;18.60;68.50;;;;;;5096384;28;19920;-70
2023/05/09 03:38:10;;;;;;;;;;;18.50;68.40;;;;;;5096390;28;20011;-70
2023/05/09 03:40:36;;;;;;;;;;;18.50;68.40;;;;;;5114732;28;19927;-68
2023/05/09 03:43:02;;;;;;;;;;;18.50;68.50;;;;;;5114216;28;20397;-70
2023/05/09 03:45:27;;;;;;;;;;;18.50;68.40;;;;;;5114288;28;19971;-70
2023/05/09 03:47:53;;;;;;;;;;;18.50;68.40;;;;;;5114203;28;20041;-70
2023/05/09 03:50:18;;;;;;;;;;;18.60;68.50;;;;;;5113629;28;19930;-71
2023/05/09 03:52:44;;;;;;;;;;;18.50;68.40;;;;;;5094922;28;19919;-70
2023/05/09 03:55:09;;;;;;;;;;;18.50;68.40;;;;;;5113922;28;19923;-70
2023/05/09 03:57:35;;;;;;;;;;;18.50;68.50;;;;;;5114321;28;20446;-67
2023/05/09 04:00:01;;;;;;;;;;;18.50;68.40;;;;;;5114103;28;19920;-69
2023/05/09 04:02:26;;;;;;;;;;;18.50;68.40;;;;;;5095970;28;19919;-70
2023/05/09 04:04:52;;;;;;;;;;;18.50;68.50;;;;;;5114109;28;19923;-70
2023/05/09 04:07:18;;;;;;;;;;;18.50;68.40;;;;;;5095737;28;19968;-70
2023/05/09 04:09:43;;;;;;;;;;;18.50;68.40;;;;;;5113528;28;20397;-70
2023/05/09 04:12:09;;;;;;;;;;;18.50;68.40;;;;;;5095771;28;19959;-70
2023/05/09 04:14:34;;;;;;;;;;;18.50;68.40;;;;;;5095679;28;19978;-70
2023/05/09 04:17:00;;;;;;;;;;;18.50;68.40;;;;;;5095803;28;19988;-71
2023/05/09 04:19:25;;;;;;;;;;;18.50;68.50;;;;;;5113798;28;19920;-70
2023/05/09 04:21:51;;;;;;;;;;;18.50;68.50;;;;;;5095830;28;19920;-71
2023/05/09 04:24:17;;;;;;;;;;;18.50;68.50;;;;;;5095770;28;19928;-70
2023/05/09 04:26:42;;;;;;;;;;;18.50;68.50;;;;;;5113757;28;19959;-70
2023/05/09 04:29:07;;;;;;;;;;;18.50;68.50;;;;;;5095257;28;19919;-70
2023/05/09 04:31:33;;;;;;;;;;;18.50;68.50;;;;;;5095250;28;19924;-70
2023/05/09 04:33:59;;;;;;;;;;;18.50;68.50;;;;;;5095262;28;20155;-70
2023/05/09 04:36:24;;;;;;;;;;;18.50;68.50;;;;;;5094793;28;19988;-68
2023/05/09 04:38:50;;;;;;;;;;;18.50;69.20;;;;;;5094764;28;19920;-70
2023/05/09 04:41:15;;;;;;;;;;;18.50;68.50;;;;;;5094899;28;20293;-71
2023/05/09 04:43:41;;;;;;;;;;;18.50;68.50;;;;;;5094709;28;20014;-70
2023/05/09 04:46:07;;;;;;;;;;;18.50;68.50;;;;;;5112838;28;19923;-69
2023/05/09 04:48:33;;;;;;;;;;;18.50;68.50;;;;;;5094908;28;19920;-70
2023/05/09 04:50:59;;;;;;;;;;;18.50;68.50;;;;;;5094633;28;19930;-70
2023/05/09 04:53:25;;;;;;;;;;;18.50;68.50;;;;;;5095071;28;19919;-70
2023/05/09 04:55:51;;;;;;;;;;;18.50;68.60;;;;;;5113252;28;19920;-70
2023/05/09 04:58:16;;;;;;;;;;;18.60;68.60;;;;;;5095156;28;19927;-70
2023/05/09 05:00:42;;;;;;;;;;;18.70;68.50;;;;;;5095199;28;19920;-71
2023/05/09 05:03:07;;;;;;;;;;;18.90;68.20;;;;;;5095114;28;19919;-71
2023/05/09 05:05:33;;;;;;;;;;;19.10;67.90;;;;;;5094848;28;20377;-70
2023/05/09 05:07:59;;;;;;;;;;;19.30;67.40;;;;;;5094773;28;19942;-67
2023/05/09 05:10:24;;;;;;;;;;;19.50;66.90;;;;;;5094167;28;20383;-70
2023/05/09 05:12:50;;;;;;;;;;;19.80;66.30;;;;;;5094739;28;20018;-70
2023/05/09 05:15:18;;;;;;;;;;;20.00;65.50;;;;;;5094371;28;19942;-70
2023/05/09 05:17:43;;;;;;;;;;;20.20;64.90;;;;;;5111983;28;20389;-70
2023/05/09 05:20:09;;;;;;;;;;;20.40;64.40;;;;;;5112476;28;19919;-71
2023/05/09 05:22:35;;;;;;;;;;;20.50;63.80;;;;;;5112189;28;20335;-70
2023/05/09 05:25:02;;;;;;;;;;;20.70;63.40;;;;;;5094195;28;19919;-70
2023/05/09 05:27:27;;;;;;;;;;;20.80;63.10;;;;;;5094034;28;19931;-70
2023/05/09 05:29:53;;;;;;;;;;;21.00;62.80;;;;;;5093588;28;19924;-70
2023/05/09 05:32:19;;;;;;;;;;;21.10;62.50;;;;;;5094251;28;19924;-70
2023/05/09 05:34:44;;;;;;;;;;;21.10;62.20;;;;;;5094521;28;19973;-70
2023/05/09 05:37:10;;;;;;;;;;;21.20;62.00;;;;;;5094185;28;20279;-70
2023/05/09 05:39:35;;;;;;;;;;;21.20;61.80;;;;;;5090977;28;20290;-69
2023/05/09 05:42:01;;;;;;;;;;;21.30;61.90;;;;;;5111025;28;19930;-68
2023/05/09 05:44:26;;;;;;;;;;;21.30;62.00;;;;;;5089768;28;19927;-69
2023/05/09 05:46:51;;;;;;;;;;;21.30;62.10;;;;;;5090312;28;19962;-71
2023/05/09 05:49:17;;;;;;;;;;;21.30;62.20;;;;;;5089421;28;20335;-75
2023/05/09 05:51:42;;;;;;;;;;;21.30;62.50;;;;;;5093549;28;20011;-74
2023/05/09 05:54:08;;;;;;;;;;;21.30;62.70;;;;;;5089293;28;20422;-73
2023/05/09 05:56:33;;;;;;;;;;;21.30;62.90;;;;;;5090531;28;19919;-74
2023/05/09 05:58:59;;;;;;;;;;;21.30;62.90;;;;;;5088104;28;19920;-74
2023/05/09 06:01:25;;;;;;;;;;;21.30;63.00;;;;;;5087943;28;20458;-75
2023/05/09 06:03:53;;;;;;;;;;;21.30;63.00;;;;;;5100664;28;19920;-75
2023/05/09 06:06:20;;;;;;;;;;;21.30;63.00;;;;;;5104133;28;19920;-73
2023/05/09 06:08:48;;;;;;;;;;;21.40;62.70;;;;;;5086390;28;19928;-74
2023/05/09 06:11:14;;;;;;;;;;;21.40;62.80;;;;;;5087488;28;19931;-71
2023/05/09 06:13:40;;;;;;;;;;;21.40;62.70;;;;;;5104104;28;19970;-75
2023/05/09 06:16:06;;;;;;;;;;;21.40;62.70;;;;;;5108402;28;19963;-65
2023/05/09 06:18:31;;;;;;;;;;;21.40;62.60;;;;;;5099050;27;20755;-68
2023/05/09 06:20:57;;;;;;;;;;;21.40;62.70;;;;;;5079295;27;19924;-68
2023/05/09 06:23:22;;;;;;;;;;;21.40;62.60;;;;;;5083163;28;19935;-68
2023/05/09 06:25:48;;;;;;;;;;;21.40;62.60;;;;;;5115436;27;19928;-67
2023/05/09 06:28:13;;;;;;;;;;;21.50;62.60;;;;;;5092698;28;20538;-69
2023/05/09 06:30:39;;;;;;;;;;;21.50;62.70;;;;;;5094055;28;19931;-68
2023/05/09 06:33:04;;;;;;;;;;;21.50;62.60;;;;;;5078022;27;19923;-69
2023/05/09 06:35:30;;;;;;;;;;;21.60;62.60;;;;;;5088187;28;19924;-68
2023/05/09 06:37:55;;;;;;;;;;;21.60;62.40;;;;;;5093979;28;19963;-68
2023/05/09 06:40:21;;;;;;;;;;;21.70;62.20;;;;;;5093677;28;19920;-69
2023/05/09 06:42:47;;;;;;;;;;;21.80;62.10;;;;;;5075613;28;19928;-69
2023/05/09 06:45:13;;;;;;;;;;;21.70;62.10;;;;;;5078876;28;19924;-70
2023/05/09 06:47:38;;;;;;;;;;;21.70;62.20;;;;;;5069759;28;19927;-72
2023/05/09 06:50:04;;;;;;;;;;;21.60;62.30;;;;;;5079376;28;19985;-70
2023/05/09 06:52:30;;;;;;;;;;;21.60;62.40;;;;;;5078964;28;20213;-68
2023/05/09 06:54:55;;;;;;;;;;;21.70;62.60;;;;;;5094531;28;20382;-70
2023/05/09 06:57:21;;;;;;;;;;;21.60;62.60;;;;;;5072313;28;19924;-69
2023/05/09 06:59:46;;;;;;;;;;;21.60;62.70;;;;;;5072171;28;20655;-70
2023/05/09 07:02:11;;;;;;;;;;;21.60;62.60;;;;;;5107473;27;19924;-70
2023/05/09 07:04:37;;;;;;;;;;;21.60;62.60;;;;;;5078309;28;19924;-72
2023/05/09 07:07:02;;;;;;;;;;;21.60;62.70;;;;;;5078147;28;20046;-72
2023/05/09 07:09:28;;;;;;;;;;;21.60;62.80;;;;;;5107161;27;19943;-70
2023/05/09 07:11:54;;;;;;;;;;;21.60;62.90;;;;;;5091507;28;19923;-70
2023/05/09 07:14:19;;;;;;;;;;;21.60;62.90;;;;;;5078946;28;19978;-70
2023/05/09 07:16:45;;;;;;;;;;;21.60;62.90;;;;;;5110373;27;19924;-69
2023/05/09 07:19:11;;;;;;;;;;;21.60;63.10;;;;;;5104647;27;19939;-71
2023/05/09 07:21:36;;;;;;;;;;;21.60;63.10;;;;;;5074442;28;19976;-72
2023/05/09 07:24:02;;;;;;;;;;;21.60;63.10;;;;;;5106848;27;20014;-70
2023/05/09 07:26:28;;;;;;;;;;;21.60;63.20;;;;;;5075805;28;20288;-68
2023/05/09 07:28:53;;;;;;;;;;;21.50;63.10;;;;;;5095033;27;19927;-68
2023/05/09 07:31:19;;;;;;;;;;;21.60;63.20;;;;;;5091145;27;19928;-70
2023/05/09 07:33:44;;;;;;;;;;;21.50;63.20;;;;;;5073996;28;19966;-68
2023/05/09 07:36:15;;;;;;;;;;;21.50;63.40;;;;;;5076502;28;20040;-69
2023/05/09 07:38:40;;;;;;;;;;;21.50;63.50;;;;;;5079878;28;19924;-67
2023/05/09 07:41:06;;;;;;;;;;;21.50;63.70;;;;;;5110852;27;19924;-68
2023/05/09 07:43:31;;;;;;;;;;;21.50;63.70;;;;;;5081073;28;19924;-68
2023/05/09 07:45:57;;;;;;;;;;;21.50;63.80;;;;;;5075419;28;19924;-69
2023/05/09 07:48:22;;;;;;;;;;;21.40;63.80;;;;;;5081569;28;19927;-69
2023/05/09 07:50:48;;;;;;;;;;;21.40;64.00;;;;;;5074835;28;20020;-70
2023/05/09 07:53:13;;;;;;;;;;;21.40;64.10;;;;;;5093653;28;20423;-68
2023/05/09 07:55:39;;;;;;;;;;;21.40;64.10;;;;;;5093041;28;19930;-66
2023/05/09 07:58:04;;;;;;;;;;;21.30;64.10;;;;;;5091834;28;19985;-69
2023/05/09 08:00:30;;;;;;;;;;;21.20;64.30;;;;;;5073567;28;20276;-68
2023/05/09 08:02:56;;;;;;;;;;;21.20;64.40;;;;;;5091537;28;20447;-70
2023/05/09 08:05:21;;;;;;;;;;;21.20;65.30;;;;;;5073030;28;19924;-68
2023/05/09 08:07:47;;;;;;;;;;;21.10;64.70;;;;;;5079424;28;20030;-67
2023/05/09 08:10:12;;;;;;;;;;;21.10;64.90;;;;;;5102460;27;19924;-67
2023/05/09 08:12:38;;;;;;;;;;;21.10;64.90;;;;;;5071160;28;19928;-67
2023/05/09 08:15:04;;;;;;;;;;;21.00;65.10;;;;;;5083476;28;19923;-67
2023/05/09 08:17:29;;;;;;;;;;;21.00;65.20;;;;;;5074691;28;19985;-67
2023/05/09 08:19:55;;;;;;;;;;;21.00;65.20;;;;;;5090659;27;19947;-68
2023/05/09 08:22:20;;;;;;;;;;;21.00;65.30;;;;;;5075165;28;19924;-66
2023/05/09 08:24:46;;;;;;;;;;;21.00;65.40;;;;;;5074249;28;20494;-67
2023/05/09 08:27:12;;;;;;;;;;;21.10;65.30;;;;;;5093272;27;19924;-67
2023/05/09 08:29:38;;;;;;;;;;;21.10;65.20;;;;;;5070353;28;19928;-67
2023/05/09 08:32:04;;;;;;;;;;;21.00;65.20;;;;;;5102866;27;19945;-70
2023/05/09 08:34:33;;;;;;;;;;;21.00;65.10;;;;;;5073190;28;19924;-70
2023/05/09 08:36:59;;;;;;;;;;;21.10;65.30;;;;;;5069199;28;19935;-69
2023/05/09 08:39:24;;;;;;;;;;;21.10;65.20;;;;;;5074035;28;19920;-69
2023/05/09 08:41:50;;;;;;;;;;;21.10;65.10;;;;;;5073850;28;19968;-69
2023/05/09 08:44:16;;;;;;;;;;;21.10;65.10;;;;;;5070265;28;19930;-68
2023/05/09 08:46:42;;;;;;;;;;;21.00;65.10;;;;;;5072296;28;19920;-70
2023/05/09 08:49:08;;;;;;;;;;;21.00;65.10;;;;;;5069550;28;20288;-69
2023/05/09 08:51:34;;;;;;;;;;;21.00;65.00;;;;;;5070185;28;19931;-68
2023/05/09 08:54:00;;;;;;;;;;;21.00;65.00;;;;;;5068123;28;19936;-68
2023/05/09 08:56:25;;;;;;;;;;;21.00;65.00;;;;;;5070515;28;19924;-69
2023/05/09 08:58:52;;;;;;;;;;;21.00;65.00;;;;;;5071026;28;19947;-68
2023/05/09 09:01:17;;;;;;;;;;;21.00;65.00;;;;;;5070911;28;19969;-69
2023/05/09 09:03:46;;;;;;;;;;;20.90;65.00;;;;;;5071098;28;19924;-69
2023/05/09 09:06:12;;;;;;;;;;;20.90;65.00;;;;;;5087742;28;19942;-68
2023/05/09 09:08:37;;;;;;;;;;;20.90;64.90;;;;;;5074068;28;19944;-69
2023/05/09 09:11:03;;;;;;;;;;;20.90;64.90;;;;;;5066563;28;19928;-69
2023/05/09 09:13:29;;;;;;;;;;;20.90;64.90;;;;;;5095091;27;19932;-70
2023/05/09 09:15:57;;;;;;;;;;;20.80;64.90;;;;;;5099517;27;20960;-68
2023/05/09 09:18:27;;;;;;;;;;;20.80;64.80;;;;;;5076024;28;19924;-70
2023/05/09 09:20:56;;;;;;;;;;;20.80;64.80;;;;;;5074430;28;19932;-71
2023/05/09 09:23:23;;;;;;;;;;;20.80;64.90;;;;;;5074830;28;19924;-69
2023/05/09 09:25:55;;;;;;;;;;;20.80;65.00;;;;;;5078429;28;20376;-69
2023/05/09 09:28:21;;;;;;;;;;;20.80;65.10;;;;;;5072855;28;19935;-69
2023/05/09 09:30:47;;;;;;;;;;;20.80;65.50;;;;;;5078078;28;19928;-69
2023/05/09 09:33:20;;;;;;;;;;;20.80;65.40;;;;;;5070153;28;20331;-68
2023/05/09 09:35:47;;;;;;;;;;;20.90;65.50;;;;;;5077517;28;20482;-71
2023/05/09 09:38:13;;;;;;;;;;;20.90;65.60;;;;;;5069820;28;20567;-69
2023/05/09 09:40:39;;;;;;;;;;;21.00;65.60;;;;;;5070358;28;19923;-70
2023/05/09 09:43:05;;;;;;;;;;;21.00;65.60;;;;;;5102245;28;19924;-70
2023/05/09 09:45:31;;;;;;;;;;;21.00;65.50;;;;;;5070661;28;20134;-71
2023/05/09 09:47:57;;;;;;;;;;;21.00;65.70;;;;;;5071715;28;19982;-69
2023/05/09 09:50:24;;;;;;;;;;;21.00;65.80;;;;;;5069999;28;20287;-69
2023/05/09 09:52:51;;;;;;;;;;;21.00;65.80;;;;;;5105375;27;19988;-68
2023/05/09 09:55:17;;;;;;;;;;;21.00;65.80;;;;;;5079290;28;19928;-67
2023/05/09 09:57:44;;;;;;;;;;;21.00;66.00;;;;;;5103692;27;19927;-67
2023/05/09 10:00:11;;;;;;;;;;;21.00;66.00;;;;;;5073667;28;19924;-67
2023/05/09 10:02:53;;;;;;;;;;;21.00;66.00;;;;;;5078896;28;19925;-69
2023/05/09 10:05:20;;;;;;;;;;;20.90;66.10;;;;;;5078039;28;19939;-70
2023/05/09 10:07:51;;;;;;;;;;;20.90;66.70;;;;;;5081490;28;19931;-67
2023/05/09 10:10:17;;;;;;;;;;;21.00;66.20;;;;;;5071230;28;19933;-67
2023/05/09 10:12:43;;;;;;;;;;;20.90;66.20;;;;;;5070882;28;19927;-67
2023/05/09 10:15:09;;;;;;;;;;;20.90;66.20;;;;;;5069127;28;19935;-70
2023/05/09 10:17:34;;;;;;;;;;;20.90;66.30;;;;;;5070936;28;19919;-70
2023/05/09 10:20:01;;;;;;;;;;;20.90;66.40;;;;;;5075663;28;20379;-70
2023/05/09 10:22:28;;;;;;;;;;;20.90;66.20;;;;;;5076137;28;20423;-65
2023/05/09 10:25:00;;;;;;;;;;;20.90;66.30;;;;;;5077512;28;19935;-70
2023/05/09 10:27:27;;;;;;;;;;;20.80;66.20;;;;;;5073262;28;19920;-71
2023/05/09 10:30:11;;;;;;;;;;;20.90;66.60;;;;;;5080575;28;20024;-70
2023/05/09 10:32:40;;;;;;;;;;;20.80;66.60;;;;;;5078319;28;20011;-69
2023/05/09 10:35:07;;;;;;;;;;;20.80;66.50;;;;;;5082220;28;20081;-70
2023/05/09 10:37:33;;;;;;;;;;;20.80;66.50;;;;;;5076129;28;19924;-69
2023/05/09 10:40:00;;;;;;;;;;;20.70;66.70;;;;;;5073655;28;19931;-68
2023/05/09 10:42:27;;;;;;;;;;;20.70;66.70;;;;;;5107916;27;20443;-68
2023/05/09 10:44:52;;;;;;;;;;;20.70;66.80;;;;;;5076034;28;19957;-69
2023/05/09 10:47:19;;;;;;;;;;;20.70;66.70;;;;;;5074999;28;20007;-68
2023/05/09 10:49:45;;;;;;;;;;;20.70;66.80;;;;;;5108654;27;19935;-69
2023/05/09 10:52:11;;;;;;;;;;;20.70;66.90;;;;;;5082155;28;19924;-70
2023/05/09 10:54:37;;;;;;;;;;;20.70;67.20;;;;;;5077019;28;20015;-68
2023/05/09 10:57:04;;;;;;;;;;;20.70;67.10;;;;;;5073747;28;19980;-69
2023/05/09 10:59:32;;;;;;;;;;;20.60;67.00;;;;;;5074486;27;20011;-68
2023/05/09 11:02:02;;;;;;;;;;;20.70;67.10;;;;;;5073982;28;20391;-69
2023/05/09 11:04:28;;;;;;;;;;;20.60;67.00;;;;;;5094787;27;19927;-68
2023/05/09 11:06:53;;;;;;;;;;;20.60;67.10;;;;;;5082149;28;20059;-69
2023/05/09 11:09:37;;;;;;;;;;;20.60;67.10;;;;;;5094081;28;20031;-69
2023/05/09 11:14:44;;;;;;;;;;;20.60;67.20;;;;;;5088262;27;19924;-69
2023/05/09 11:17:11;;;;;;;;;;;20.60;67.40;;;;;;5071031;28;19925;-67
2023/05/09 11:22:26;;;;;;;;;;;20.60;67.30;;;;;;5091768;27;19927;-68
2023/05/09 11:24:58;;;;;;;;;;;20.50;67.40;;;;;;5070037;28;20368;-68
2023/05/09 11:27:25;;;;;;;;;;;20.70;67.60;;;;;;5076509;28;19935;-67
2023/05/09 11:29:52;;;;;;;;;;;20.60;67.40;;;;;;5075154;28;20400;-67
2023/05/09 11:32:18;;;;;;;;;;;20.60;67.40;;;;;;5075554;28;19925;-70
2023/05/09 11:34:44;;;;;;;;;;;20.60;67.50;;;;;;5077868;28;20330;-68
2023/05/09 11:37:10;;;;;;;;;;;20.60;67.40;;;;;;5104843;27;19924;-68
2023/05/09 11:39:54;;;;;;;;;;;20.60;67.70;;;;;;5076381;28;19924;-68
2023/05/09 11:42:21;;;;;;;;;;;20.60;67.80;;;;;;5074230;28;20027;-67
2023/05/09 11:44:47;;;;;;;;;;;20.60;67.90;;;;;;5107523;27;19920;-67
2023/05/09 11:47:13;;;;;;;;;;;20.60;67.80;;;;;;5074044;28;19931;-66
2023/05/09 11:49:41;;;;;;;;;;;20.60;67.70;;;;;;5072787;28;19970;-69
2023/05/09 11:52:07;;;;;;;;;;;20.60;67.90;;;;;;5073825;28;19924;-66
2023/05/09 11:54:36;;;;;;;;;;;20.60;67.90;;;;;;5075905;28;20032;-65
2023/05/09 11:57:01;;;;;;;;;;;20.60;67.90;;;;;;5076169;28;20522;-68
2023/05/09 11:59:27;;;;;;;;;;;20.60;68.00;;;;;;5071990;28;19921;-68
2023/05/09 12:01:53;;;;;;;;;;;20.70;68.00;;;;;;5074507;28;19929;-65
2023/05/09 12:04:18;;;;;;;;;;;20.70;68.10;;;;;;5074407;28;19925;-68
2023/05/09 12:06:48;;;;;;;;;;;20.70;67.80;;;;;;5073753;28;19932;-69
2023/05/09 12:09:15;;;;;;;;;;;20.70;68.10;;;;;;5073203;28;19977;-69
2023/05/09 12:11:55;;;;;;;;;;;20.70;68.80;;;;;;5071974;28;19931;-68
2023/05/09 12:14:36;;;;;;;;;;;20.70;68.10;;;;;;5071911;28;19924;-69
2023/05/09 12:17:02;;;;;;;;;;;20.70;68.20;;;;;;5102778;27;19967;-71
2023/05/09 12:19:27;;;;;;;;;;;20.80;68.30;;;;;;5071108;28;20003;-68
2023/05/09 12:21:54;;;;;;;;;;;20.80;68.40;;;;;;5087304;28;20747;-70
2023/05/09 12:24:20;;;;;;;;;;;20.80;68.40;;;;;;5090459;28;19931;-68
2023/05/09 12:26:46;;;;;;;;;;;20.80;68.20;;;;;;5076453;28;20020;-69
2023/05/09 12:29:12;;;;;;;;;;;20.80;68.30;;;;;;5088625;28;19954;-71
2023/05/09 12:31:38;;;;;;;;;;;20.80;68.30;;;;;;5101897;27;20423;-66
2023/05/09 12:34:03;;;;;;;;;;;20.70;68.80;;;;;;5051786;28;20520;-68
2023/05/09 12:36:33;;;;;;;;;;;20.70;68.50;;;;;;5054332;28;19931;-68
2023/05/09 12:38:58;;;;;;;;;;;20.70;68.50;;;;;;5065878;28;20087;-73
2023/05/09 12:41:24;;;;;;;;;;;20.80;68.40;;;;;;5075601;28;20557;-72
2023/05/09 12:43:50;;;;;;;;;;;20.80;68.50;;;;;;5091821;27;19924;-69
2023/05/09 12:46:17;;;;;;;;;;;20.80;68.50;;;;;;5071326;28;19924;-71
2023/05/09 12:48:43;;;;;;;;;;;20.80;68.30;;;;;;5086303;28;20039;-71
2023/05/09 12:51:08;;;;;;;;;;;20.70;68.50;;;;;;5054298;28;20699;-71
2023/05/09 12:53:38;;;;;;;;;;;20.70;68.30;;;;;;5050184;28;19924;-71
2023/05/09 12:56:06;;;;;;;;;;;20.70;68.30;;;;;;5070943;28;20562;-72
2023/05/09 12:58:32;;;;;;;;;;;20.60;68.50;;;;;;5085544;28;19928;-72
2023/05/09 13:00:58;;;;;;;;;;;20.70;68.20;;;;;;5086755;28;19928;-71
2023/05/09 13:03:24;;;;;;;;;;;20.70;68.10;;;;;;5071818;28;20003;-73
2023/05/09 13:05:57;;;;;;;;;;;20.60;68.30;;;;;;5053086;28;19931;-70
2023/05/09 13:08:23;;;;;;;;;;;20.60;68.00;;;;;;5057651;28;19927;-68
2023/05/09 13:10:49;;;;;;;;;;;20.60;68.30;;;;;;5064168;28;19921;-66
2023/05/09 13:13:15;;;;;;;;;;;20.60;68.40;;;;;;5055334;28;19920;-70
2023/05/09 13:15:42;;;;;;;;;;;20.70;68.70;;;;;;5057489;28;20570;-71
2023/05/09 13:18:07;;;;;;;;;;;20.70;68.80;;;;;;5078819;28;19920;-74
2023/05/09 13:20:33;;;;;;;;;;;20.70;68.80;;;;;;5061807;28;19928;-68
2023/05/09 13:22:58;;;;;;;;;;;20.70;68.90;;;;;;5079187;28;19920;-69
2023/05/09 13:25:24;;;;;;;;;;;20.90;69.10;;;;;;5095198;28;19970;-68
2023/05/09 13:27:50;;;;;;;;;;;20.80;69.10;;;;;;5093184;28;19982;-67
2023/05/09 13:30:17;;;;;;;;;;;20.80;69.30;;;;;;5091847;28;20446;-66
2023/05/09 13:32:42;;;;;;;;;;;20.80;69.30;;;;;;5059897;28;19924;-66
2023/05/09 13:35:08;;;;;;;;;;;20.80;69.40;;;;;;5089895;28;19998;-71
2023/05/09 13:37:34;;;;;;;;;;;20.80;69.40;;;;;;5073643;28;19927;-69
2023/05/09 13:39:59;;;;;;;;;;;20.80;69.40;;;;;;5076828;28;19920;-69
2023/05/09 13:42:25;;;;;;;;;;;20.70;69.60;;;;;;5080412;28;19924;-70
2023/05/09 13:44:50;;;;;;;;;;;20.70;69.30;;;;;;5064085;28;19920;-69
2023/05/09 13:47:16;;;;;;;;;;;20.80;69.60;;;;;;5078944;28;20565;-68
2023/05/09 13:49:42;;;;;;;;;;;20.80;69.40;;;;;;5059984;28;19974;-69
2023/05/09 13:52:08;;;;;;;;;;;20.80;69.50;;;;;;5060551;28;19920;-70
2023/05/09 13:54:34;;;;;;;;;;;20.80;69.60;;;;;;5078041;28;20217;-69
2023/05/09 13:57:03;;;;;;;;;;;20.80;69.80;;;;;;5060808;28;20327;-69
2023/05/09 13:59:29;;;;;;;;;;;20.70;69.80;;;;;;5095357;28;20568;-69
2023/05/09 14:01:57;;;;;;;;;;;20.70;69.90;;;;;;5096190;28;19924;-70
2023/05/09 14:04:23;;;;;;;;;;;20.70;69.80;;;;;;5061168;28;19946;-70
2023/05/09 14:06:48;;;;;;;;;;;20.60;69.60;;;;;;5091770;28;19924;-70
2023/05/09 14:09:14;;;;;;;;;;;20.60;69.40;;;;;;5092396;28;19920;-70
2023/05/09 14:11:41;;;;;;;;;;;20.60;69.40;;;;;;5094106;28;19919;-70
2023/05/09 14:14:07;;;;;;;;;;;20.50;69.20;;;;;;5092281;28;19939;-71
2023/05/09 14:16:32;;;;;;;;;;;20.50;69.20;;;;;;5061533;28;19928;-71
2023/05/09 14:18:58;;;;;;;;;;;20.60;69.20;;;;;;5077578;28;19920;-70
2023/05/09 14:21:23;;;;;;;;;;;20.40;69.00;;;;;;5090789;28;19924;-70